Time;durP1;ratioP1;P1;durP2;ratioP2;P2;SDS_P1;SDS_P2;PMS_P1;PMS_P2;Temp;Humidity;BMP_temperature;BMP_pressure;BME280_temperature;BME280_humidity;BME280_pressure;Samples;Min_cycle;Max_cycle;Signal;HPM_P1;HPM_P2
2021/01/13 06:33:32;;;;;;;14.55;9.20;;;1.10;70.30;;;;;;2852665;28;20040;-58
2021/01/13 06:36:21;;;;;;;15.15;9.10;;;1.10;70.70;;;;;;5002649;28;20109;-58
2021/01/13 06:38:53;;;;;;;12.38;7.90;;;1.10;70.70;;;;;;5000713;28;20065;-58
2021/01/13 06:41:19;;;;;;;15.63;8.95;;;1.10;70.70;;;;;;5009476;28;20366;-58
2021/01/13 06:44:03;;;;;;;12.98;7.78;;;1.10;70.60;;;;;;5007197;28;20026;-57
2021/01/13 06:46:30;;;;;;;14.60;8.77;;;1.10;70.60;;;;;;5012105;28;20462;-59
2021/01/13 06:49:12;;;;;;;12.20;8.02;;;1.10;70.80;;;;;;5007532;28;20085;-59
2021/01/13 06:51:42;;;;;;;;;;;1.10;71.30;;;;;;5008257;28;20034;-58
2021/01/13 06:54:11;;;;;;;12.63;7.65;;;1.10;71.60;;;;;;5015175;28;20295;-59
2021/01/13 06:56:55;;;;;;;14.18;8.18;;;1.20;71.10;;;;;;5006302;28;20046;-58
2021/01/13 06:59:22;;;;;;;11.95;8.25;;;1.20;70.90;;;;;;5008542;28;20046;-59
2021/01/13 07:01:55;;;;;;;10.32;6.88;;;1.20;71.10;;;;;;5005483;28;20079;-59
2021/01/13 07:04:21;;;;;;;10.23;6.80;;;1.20;71.20;;;;;;4999493;28;20029;-59
2021/01/13 07:07:07;;;;;;;11.55;7.63;;;1.20;71.30;;;;;;4998019;28;20025;-59
2021/01/13 07:09:44;;;;;;;9.82;6.75;;;1.20;71.30;;;;;;4998317;28;20034;-59
2021/01/13 07:12:24;;;;;;;12.65;8.13;;;1.20;71.20;;;;;;5002501;28;20037;-59
2021/01/13 07:14:53;;;;;;;11.15;6.32;;;1.20;71.20;;;;;;5001039;28;20037;-59
2021/01/13 07:17:21;;;;;;;11.32;6.93;;;1.20;71.30;;;;;;4997731;28;20026;-59
2021/01/13 07:19:53;;;;;;;10.20;6.20;;;1.10;71.40;;;;;;5002357;28;20034;-62
2021/01/13 07:22:22;;;;;;;8.65;6.45;;;1.10;71.60;;;;;;5004153;28;20053;-59
2021/01/13 07:24:49;;;;;;;9.88;6.53;;;1.10;71.60;;;;;;5005144;28;20029;-58
2021/01/13 07:27:16;;;;;;;10.38;6.57;;;1.00;71.90;;;;;;5002922;28;20029;-59
2021/01/13 07:29:42;;;;;;;12.00;6.97;;;1.10;72.10;;;;;;5000891;28;20041;-58
2021/01/13 07:32:10;;;;;;;9.32;6.45;;;1.10;72.00;;;;;;5002921;28;20037;-61
2021/01/13 07:34:41;;;;;;;9.05;6.30;;;1.10;71.90;;;;;;5000804;28;20058;-58
2021/01/13 07:37:20;;;;;;;8.52;5.80;;;1.10;71.90;;;;;;5005705;28;20030;-57
2021/01/13 07:40:03;;;;;;;9.68;6.63;;;1.10;71.90;;;;;;5003697;28;21013;-61
2021/01/13 07:42:46;;;;;;;10.18;6.78;;;1.10;72.00;;;;;;5005182;28;20100;-59
2021/01/13 07:45:14;;;;;;;10.82;6.57;;;1.10;71.90;;;;;;4997804;28;20052;-59
2021/01/13 07:48:12;;;;;;;9.48;6.05;;;1.10;71.90;;;;;;5001200;28;20116;-59
2021/01/13 07:50:43;;;;;;;9.13;6.47;;;1.10;71.80;;;;;;5005393;28;20105;-59
2021/01/13 07:53:25;;;;;;;8.77;5.97;;;1.10;72.10;;;;;;5003313;28;20042;-59
2021/01/13 07:56:02;;;;;;;9.77;6.43;;;1.10;72.10;;;;;;5002607;28;20033;-58
2021/01/13 07:58:35;;;;;;;9.40;6.20;;;1.10;72.10;;;;;;5004443;28;20796;-59
2021/01/13 08:01:20;;;;;;;9.23;6.22;;;1.10;72.10;;;;;;4998863;28;20037;-58
2021/01/13 08:04:18;;;;;;;8.65;6.30;;;1.10;72.30;;;;;;4998497;28;20018;-60
2021/01/13 08:06:52;;;;;;;9.50;6.32;;;1.10;72.30;;;;;;5012301;28;20145;-59
2021/01/13 08:09:20;;;;;;;8.73;6.40;;;1.10;72.30;;;;;;5002613;28;20744;-59
2021/01/13 08:12:05;;;;;;;8.80;6.68;;;1.10;72.50;;;;;;4999640;28;20402;-59
2021/01/13 08:15:18;;;;;;;9.32;6.00;;;1.10;72.60;;;;;;5003941;28;20034;-58
2021/01/13 08:18:48;;;;;;;8.00;5.75;;;1.10;72.30;;;;;;5006286;28;20065;-59
2021/01/13 08:21:27;;;;;;;8.27;5.80;;;1.10;72.30;;;;;;4977404;28;20073;-58
2021/01/13 08:24:06;;;;;;;9.23;5.15;;;1.10;72.60;;;;;;4974389;28;20022;-58
2021/01/13 08:26:33;;;;;;;6.90;5.00;;;1.10;72.80;;;;;;4993573;28;20041;-59
2021/01/13 08:29:01;;;;;;;8.73;5.78;;;1.10;72.50;;;;;;4998490;28;20033;-59
2021/01/13 08:31:28;;;;;;;8.27;5.65;;;1.10;72.40;;;;;;4995933;28;22095;-56
2021/01/13 08:34:11;;;;;;;7.72;5.60;;;1.10;72.40;;;;;;5004224;28;20091;-59
2021/01/13 08:36:39;;;;;;;7.28;5.32;;;1.10;72.30;;;;;;5004811;28;20666;-59
2021/01/13 08:39:15;;;;;;;8.75;5.68;;;1.10;72.30;;;;;;5004655;28;20057;-59
2021/01/13 08:41:43;;;;;;;8.02;5.35;;;1.10;72.60;;;;;;4998314;28;20061;-59
2021/01/13 08:44:38;;;;;;;7.75;5.68;;;1.20;72.80;;;;;;5000043;28;20113;-59
2021/01/13 08:47:04;;;;;;;7.80;5.50;;;1.20;72.70;;;;;;5002311;28;20032;-60
2021/01/13 08:49:32;;;;;;;8.50;5.97;;;1.20;73.30;;;;;;4997141;28;20026;-59
2021/01/13 08:52:21;;;;;;;8.57;5.82;;;1.20;72.80;;;;;;4996649;28;20076;-59
2021/01/13 08:54:55;;;;;;;7.50;5.70;;;1.20;72.90;;;;;;4995087;28;20030;-59
2021/01/13 08:57:25;;;;;;;7.47;5.20;;;1.20;73.00;;;;;;4992909;28;20034;-59
2021/01/13 08:59:54;;;;;;;9.15;5.90;;;1.20;72.80;;;;;;4991264;28;20061;-58
2021/01/13 09:02:22;;;;;;;7.57;5.32;;;1.20;73.00;;;;;;4992260;28;20488;-55
2021/01/13 09:04:52;;;;;;;6.82;5.03;;;1.20;73.00;;;;;;4995219;28;20034;-57
2021/01/13 09:07:33;;;;;;;6.25;4.32;;;1.20;73.00;;;;;;4996424;28;20389;-59
2021/01/13 09:10:02;;;;;;;7.40;5.00;;;1.20;73.00;;;;;;4992041;28;20045;-60
2021/01/13 09:12:46;;;;;;;6.65;4.82;;;1.20;73.10;;;;;;4996042;28;20081;-60
2021/01/13 09:15:24;;;;;;;6.55;4.43;;;1.20;73.10;;;;;;4999238;28;20117;-60
2021/01/13 09:17:59;;;;;;;6.28;4.80;;;1.20;73.10;;;;;;4995580;28;20148;-60
2021/01/13 09:20:31;;;;;;;7.95;5.28;;;1.20;73.10;;;;;;4997905;28;20049;-60
2021/01/13 09:23:00;;;;;;;6.95;4.68;;;1.20;72.90;;;;;;4995202;28;20029;-60
2021/01/13 09:25:31;;;;;;;8.32;5.30;;;1.20;72.90;;;;;;4993434;28;20121;-60
2021/01/13 09:28:00;;;;;;;6.90;4.90;;;1.30;73.30;;;;;;4998858;28;20100;-60
2021/01/13 09:30:31;;;;;;;7.85;5.18;;;1.30;73.40;;;;;;4994342;28;20547;-60
2021/01/13 09:32:58;;;;;;;6.60;5.05;;;1.30;73.10;;;;;;4993015;28;20045;-59
2021/01/13 09:35:26;;;;;;;8.07;5.32;;;1.30;72.80;;;;;;4999622;28;20103;-59
2021/01/13 09:37:55;;;;;;;7.45;5.05;;;1.30;72.70;;;;;;4995052;28;20042;-59
2021/01/13 09:40:22;;;;;;;10.07;5.60;;;1.30;73.00;;;;;;4996975;28;20117;-60
2021/01/13 09:42:57;;;;;;;7.22;4.68;;;1.40;72.80;;;;;;4996088;28;20390;-60
2021/01/13 09:45:37;;;;;;;6.82;4.78;;;1.40;72.80;;;;;;4994454;28;20044;-60
2021/01/13 09:48:16;;;;;;;5.97;4.05;;;1.40;72.70;;;;;;4993599;28;20093;-59
2021/01/13 09:50:42;;;;;;;7.30;4.57;;;1.40;72.50;;;;;;4992145;28;20046;-59
2021/01/13 09:53:11;;;;;;;6.72;4.88;;;1.40;72.40;;;;;;4990347;28;20040;-60
2021/01/13 09:55:37;;;;;;;5.78;4.40;;;1.40;72.60;;;;;;4995171;28;20030;-59
2021/01/13 09:58:17;;;;;;;6.65;4.30;;;1.40;72.80;;;;;;4990279;28;20109;-58
2021/01/13 10:00:43;;;;;;;6.82;4.50;;;1.50;72.60;;;;;;4997335;28;20030;-59
2021/01/13 10:03:12;;;;;;;7.55;5.47;;;1.50;72.60;;;;;;4996385;28;20042;-59
2021/01/13 10:05:38;;;;;;;6.15;4.40;;;1.60;72.30;;;;;;4996732;28;20089;-59
2021/01/13 10:08:04;;;;;;;6.80;4.35;;;1.60;72.30;;;;;;4996634;28;20030;-59
2021/01/13 10:10:30;;;;;;;6.00;4.43;;;1.60;72.20;;;;;;4998305;28;20092;-60
2021/01/13 10:12:57;;;;;;;5.38;4.28;;;1.70;72.20;;;;;;5001268;28;20084;-59
2021/01/13 10:15:23;;;;;;;8.07;4.65;;;1.80;71.60;;;;;;5023357;28;20030;-60
2021/01/13 10:17:49;;;;;;;7.22;5.20;;;1.70;71.20;;;;;;4994097;28;20049;-58
2021/01/13 10:20:27;;;;;;;7.45;4.90;;;1.70;71.10;;;;;;4992704;28;20121;-59
2021/01/13 10:22:53;;;;;;;7.60;4.88;;;1.70;71.10;;;;;;4997212;28;20458;-59
2021/01/13 10:25:30;;;;;;;6.20;4.60;;;1.70;71.20;;;;;;4996739;28;20088;-60
2021/01/13 10:27:57;;;;;;;6.90;4.53;;;1.70;71.00;;;;;;4996235;28;20266;-59
2021/01/13 10:30:24;;;;;;;6.20;4.30;;;1.70;71.10;;;;;;4996064;28;20383;-58
2021/01/13 10:32:52;;;;;;;6.93;4.60;;;1.70;71.00;;;;;;4997387;28;20034;-60
2021/01/13 10:35:21;;;;;;;5.78;4.57;;;1.70;71.00;;;;;;4997076;28;20049;-59
2021/01/13 10:37:55;;;;;;;7.60;4.90;;;1.70;70.80;;;;;;4998036;28;20072;-59
2021/01/13 10:40:22;;;;;;;6.30;4.50;;;1.70;70.50;;;;;;5002056;28;20103;-59
2021/01/13 10:42:54;;;;;;;5.53;4.30;;;1.70;70.60;;;;;;5004009;28;20052;-59
2021/01/13 10:45:22;;;;;;;7.25;4.70;;;1.70;70.70;;;;;;4997042;28;20402;-60
2021/01/13 10:47:59;;;;;;;6.70;4.78;;;1.70;70.40;;;;;;5001347;28;20029;-59
2021/01/13 10:50:30;;;;;;;5.85;4.50;;;1.70;70.40;;;;;;5000748;28;20042;-58
2021/01/13 10:52:58;;;;;;;6.22;4.32;;;1.70;70.50;;;;;;5002101;28;20041;-59
2021/01/13 10:55:26;;;;;;;5.32;4.30;;;1.70;70.60;;;;;;4996065;28;20042;-59
2021/01/13 10:57:53;;;;;;;5.90;4.40;;;1.70;70.50;;;;;;4998779;28;20029;-57
2021/01/13 11:00:24;;;;;;;7.32;5.03;;;1.70;70.50;;;;;;4996060;28;20058;-59
2021/01/13 11:03:02;;;;;;;6.65;4.63;;;1.70;70.30;;;;;;4991776;28;20466;-59
2021/01/13 11:05:34;;;;;;;6.28;4.50;;;1.70;70.40;;;;;;4994862;28;20034;-59
2021/01/13 11:08:03;;;;;;;6.72;4.68;;;1.70;70.60;;;;;;5002439;28;20101;-59
2021/01/13 11:10:29;;;;;;;6.80;4.85;;;1.70;70.50;;;;;;4998225;28;20463;-59
2021/01/13 11:13:02;;;;;;;5.75;4.32;;;1.70;70.40;;;;;;4996248;28;20458;-60
2021/01/13 11:15:28;;;;;;;7.13;5.00;;;1.70;70.20;;;;;;4998410;28;20036;-60
2021/01/13 11:17:58;;;;;;;7.18;4.85;;;1.60;70.20;;;;;;4999014;28;20034;-59
2021/01/13 11:20:29;;;;;;;7.22;4.63;;;1.60;70.20;;;;;;4999311;28;20024;-58
2021/01/13 11:22:57;;;;;;;5.82;4.55;;;1.60;70.30;;;;;;4995799;28;20207;-59
2021/01/13 11:25:39;;;;;;;6.80;4.70;;;1.60;70.30;;;;;;4999584;28;20034;-59
2021/01/13 11:28:13;;;;;;;6.60;4.45;;;1.60;70.30;;;;;;5000459;28;20062;-59
2021/01/13 11:30:41;;;;;;;6.80;4.60;;;1.60;70.20;;;;;;4996025;28;20045;-60
2021/01/13 11:33:09;;;;;;;5.78;4.20;;;1.60;70.20;;;;;;4998778;28;20705;-59
2021/01/13 11:35:49;;;;;;;5.57;4.28;;;1.60;70.10;;;;;;4997711;28;20050;-59
2021/01/13 11:38:33;;;;;;;7.22;4.70;;;1.50;70.00;;;;;;4995464;28;20091;-59
2021/01/13 11:41:26;;;;;;;6.03;4.85;;;1.50;70.00;;;;;;5002486;28;20493;-58
2021/01/13 11:44:26;;;;;;;5.43;4.30;;;1.40;69.80;;;;;;4995198;28;20482;-58
2021/01/13 11:47:14;;;;;;;6.53;4.65;;;1.40;69.90;;;;;;4995480;28;20050;-58
2021/01/13 11:49:51;;;;;;;6.28;4.38;;;1.40;70.10;;;;;;4996028;28;20026;-59
2021/01/13 11:52:18;;;;;;;5.53;4.97;;;1.40;70.80;;;;;;4997294;28;20041;-57
2021/01/13 11:54:52;;;;;;;6.32;4.63;;;1.40;70.40;;;;;;4996672;28;20044;-58
2021/01/13 11:57:20;;;;;;;7.30;4.78;;;1.40;70.30;;;;;;4995212;28;20026;-60
2021/01/13 11:59:47;;;;;;;8.05;5.10;;;1.40;70.30;;;;;;5000954;28;20030;-59
2021/01/13 12:02:20;;;;;;;6.97;4.60;;;1.40;70.10;;;;;;4995991;28;20064;-58
2021/01/13 12:04:47;;;;;;;6.97;4.88;;;1.40;70.00;;;;;;5000795;28;21123;-58
2021/01/13 12:07:13;;;;;;;5.85;4.57;;;1.40;70.00;;;;;;5001402;28;20618;-59
2021/01/13 12:09:39;;;;;;;8.07;5.07;;;1.40;69.80;;;;;;5002084;28;20029;-59
2021/01/13 12:12:06;;;;;;;7.05;4.78;;;1.40;69.80;;;;;;4996052;28;20085;-59
2021/01/13 12:14:44;;;;;;;6.82;4.28;;;1.30;69.70;;;;;;5004629;28;20030;-59
2021/01/13 12:17:10;;;;;;;5.85;4.50;;;1.30;69.80;;;;;;4998349;28;20030;-59
2021/01/13 12:19:40;;;;;;;6.72;4.75;;;1.30;69.80;;;;;;5003444;28;20497;-59
2021/01/13 12:22:07;;;;;;;8.00;4.93;;;1.30;69.70;;;;;;4992983;28;20117;-59
2021/01/13 12:24:42;;;;;;;6.68;4.32;;;1.30;69.60;;;;;;4997133;28;20066;-60
2021/01/13 12:27:25;;;;;;;6.78;4.47;;;1.30;69.80;;;;;;5013917;28;20542;-60
2021/01/13 12:30:10;;;;;;;8.65;5.18;;;1.30;70.00;;;;;;5045736;28;20032;-58
2021/01/13 12:32:37;;;;;;;6.28;4.45;;;1.30;70.00;;;;;;5052860;28;20051;-59
2021/01/13 12:35:04;;;;;;;5.32;4.18;;;1.30;70.10;;;;;;5054765;28;20083;-59
2021/01/13 12:37:30;;;;;;;6.00;4.53;;;1.30;70.00;;;;;;5049852;28;20143;-59
2021/01/13 12:39:57;;;;;;;6.80;4.95;;;1.30;70.20;;;;;;5051154;28;20069;-60
2021/01/13 12:42:30;;;;;;;7.10;4.88;;;1.30;69.90;;;;;;5056377;28;20028;-60
2021/01/13 12:45:00;;;;;;;7.00;5.22;;;1.30;69.90;;;;;;5053802;28;20025;-59
2021/01/13 12:47:27;;;;;;;7.25;5.25;;;1.30;69.90;;;;;;5057248;28;20025;-59
2021/01/13 12:49:54;;;;;;;7.32;5.05;;;1.30;69.90;;;;;;5055068;28;20033;-58
2021/01/13 12:52:20;;;;;;;5.57;4.35;;;1.30;70.00;;;;;;5049250;28;20034;-59
2021/01/13 12:54:45;;;;;;;7.32;5.53;;;1.30;70.00;;;;;;5048674;28;20025;-60
2021/01/13 12:57:12;;;;;;;7.00;4.65;;;1.30;70.00;;;;;;5048952;28;20028;-60
2021/01/13 12:59:39;;;;;;;7.57;5.30;;;1.30;69.90;;;;;;5056964;28;20020;-59
2021/01/13 13:02:05;;;;;;;6.75;5.18;;;1.30;70.00;;;;;;5051576;28;20029;-60
2021/01/13 13:04:31;;;;;;;7.45;5.15;;;1.30;69.90;;;;;;5053926;28;20496;-59
2021/01/13 13:06:57;;;;;;;8.00;5.47;;;1.30;69.90;;;;;;5052611;28;20197;-60
2021/01/13 13:09:22;;;;;;;8.35;5.65;;;1.30;69.90;;;;;;5052055;28;20029;-60
2021/01/13 13:11:48;;;;;;;8.60;5.22;;;1.30;69.90;;;;;;5053227;28;20111;-59
2021/01/13 13:14:15;;;;;;;8.68;5.68;;;1.30;70.00;;;;;;5056520;28;20052;-59
2021/01/13 13:16:42;;;;;;;8.13;6.07;;;1.30;70.10;;;;;;5053708;28;20037;-59
2021/01/13 13:19:09;;;;;;;7.38;5.32;;;1.30;70.00;;;;;;5057093;28;20024;-58
2021/01/13 13:21:34;;;;;;;7.22;5.63;;;1.30;70.00;;;;;;5054629;28;20048;-58
2021/01/13 13:24:00;;;;;;;9.13;6.05;;;1.30;70.10;;;;;;5050974;28;20089;-59
2021/01/13 13:26:26;;;;;;;8.13;5.65;;;1.30;70.00;;;;;;5056293;28;20403;-58
2021/01/13 13:28:52;;;;;;;8.40;6.00;;;1.30;70.10;;;;;;5058048;28;22526;-59
2021/01/13 13:31:19;;;;;;;9.65;5.93;;;1.30;70.20;;;;;;5053866;28;20029;-58
2021/01/13 13:33:46;;;;;;;7.57;5.70;;;1.30;70.00;;;;;;5057540;28;20377;-60
2021/01/13 13:36:12;;;;;;;8.20;5.80;;;1.30;70.30;;;;;;5054409;28;20064;-59
2021/01/13 13:38:39;;;;;;;8.93;5.40;;;1.40;70.40;;;;;;5052266;28;20039;-58
2021/01/13 13:41:06;;;;;;;9.27;5.90;;;1.40;70.40;;;;;;5047803;28;20044;-59
2021/01/13 13:43:32;;;;;;;10.15;6.40;;;1.40;70.20;;;;;;5050405;28;20471;-58
2021/01/13 13:45:58;;;;;;;9.30;6.50;;;1.30;70.00;;;;;;5055505;28;20032;-58
2021/01/13 13:48:24;;;;;;;8.90;6.05;;;1.30;70.00;;;;;;5049615;28;20108;-59
2021/01/13 13:50:57;;;;;;;10.55;7.07;;;1.30;70.10;;;;;;5052027;28;20034;-60
2021/01/13 13:53:24;;;;;;;7.53;5.55;;;1.30;70.10;;;;;;5055125;28;20029;-59
2021/01/13 13:55:50;;;;;;;10.15;6.45;;;1.30;70.20;;;;;;5046072;28;20017;-58
2021/01/13 13:58:15;;;;;;;9.13;5.95;;;1.30;70.30;;;;;;5048686;28;20072;-59
2021/01/13 14:00:41;;;;;;;7.97;5.57;;;1.30;70.30;;;;;;5049219;28;20064;-59
2021/01/13 14:03:07;;;;;;;9.98;6.57;;;1.30;70.30;;;;;;5054482;28;20048;-59
2021/01/13 14:05:33;;;;;;;6.78;5.43;;;1.30;70.30;;;;;;5050957;28;20606;-60
2021/01/13 14:07:58;;;;;;;9.10;6.25;;;1.30;70.20;;;;;;5052429;28;20024;-60
2021/01/13 14:10:24;;;;;;;7.93;6.30;;;1.30;70.40;;;;;;5053447;28;20082;-59
2021/01/13 14:12:50;;;;;;;9.05;6.28;;;1.30;70.40;;;;;;5055622;28;20143;-58
2021/01/13 14:15:18;;;;;;;8.48;6.05;;;1.30;70.30;;;;;;5047985;28;20363;-59
2021/01/13 14:17:45;;;;;;;9.23;6.53;;;1.30;70.30;;;;;;5051589;28;20116;-59
2021/01/13 14:20:11;;;;;;;9.25;6.57;;;1.30;70.30;;;;;;5053484;28;20401;-60
2021/01/13 14:22:40;;;;;;;8.60;6.15;;;1.30;70.20;;;;;;5053467;28;20052;-59
2021/01/13 14:25:08;;;;;;;8.57;6.20;;;1.30;70.20;;;;;;5053070;28;20082;-60
2021/01/13 14:27:34;;;;;;;9.50;6.50;;;1.30;70.30;;;;;;5054643;28;20020;-60
2021/01/13 14:30:00;;;;;;;8.77;6.07;;;1.30;70.20;;;;;;5051255;28;20029;-59
2021/01/13 14:32:26;;;;;;;8.43;6.22;;;1.30;70.30;;;;;;5054984;28;21165;-59
2021/01/13 14:34:51;;;;;;;8.98;5.80;;;1.30;70.20;;;;;;5053533;28;20109;-60
2021/01/13 14:37:17;;;;;;;10.52;6.75;;;1.30;70.20;;;;;;5058797;28;20090;-59
2021/01/13 14:39:43;;;;;;;8.23;6.00;;;1.30;70.20;;;;;;5054608;28;20028;-58
2021/01/13 14:42:11;;;;;;;9.02;5.90;;;1.30;70.30;;;;;;5053930;28;20016;-58
2021/01/13 14:44:38;;;;;;;9.75;6.35;;;1.30;70.10;;;;;;5058786;28;20031;-58
2021/01/13 14:47:11;;;;;;;9.18;6.05;;;1.30;70.20;;;;;;5055609;28;20044;-59
2021/01/13 14:49:39;;;;;;;8.38;6.13;;;1.30;70.20;;;;;;5053801;28;20024;-57
2021/01/13 14:52:09;;;;;;;7.35;5.65;;;1.30;70.20;;;;;;5054024;28;20123;-59
2021/01/13 14:54:36;;;;;;;9.88;6.45;;;1.40;70.20;;;;;;5045370;28;20443;-58
2021/01/13 14:57:11;;;;;;;8.02;6.00;;;1.40;70.10;;;;;;5053132;28;20031;-59
2021/01/13 14:59:37;;;;;;;7.57;6.05;;;1.40;70.00;;;;;;5050587;28;20089;-58
2021/01/13 15:02:04;;;;;;;9.70;6.38;;;1.40;70.00;;;;;;5052393;28;20033;-59
2021/01/13 15:04:30;;;;;;;8.70;6.03;;;1.40;69.90;;;;;;5053763;28;20099;-58
2021/01/13 15:07:00;;;;;;;9.23;6.20;;;1.30;69.70;;;;;;5053738;28;20029;-59
2021/01/13 15:09:28;;;;;;;7.95;6.63;;;1.30;69.80;;;;;;5053899;28;20761;-59
2021/01/13 15:11:59;;;;;;;9.10;6.25;;;1.30;69.90;;;;;;5054302;28;20040;-58
2021/01/13 15:14:25;;;;;;;8.13;6.05;;;1.30;70.00;;;;;;5057337;28;20509;-59
2021/01/13 15:16:51;;;;;;;8.23;6.30;;;1.30;70.20;;;;;;5057670;28;20032;-58
2021/01/13 15:19:17;;;;;;;8.07;6.00;;;1.30;70.20;;;;;;5054027;28;20109;-59
2021/01/13 15:21:43;;;;;;;8.90;5.95;;;1.30;70.20;;;;;;5056876;28;20028;-57
2021/01/13 15:24:09;;;;;;;7.53;6.13;;;1.30;70.40;;;;;;5056172;28;20046;-57
2021/01/13 15:26:34;;;;;;;10.18;6.28;;;1.30;70.70;;;;;;5057940;28;20033;-57
2021/01/13 15:29:00;;;;;;;9.60;6.35;;;1.30;70.40;;;;;;5056814;28;20036;-59
2021/01/13 15:31:26;;;;;;;10.15;6.40;;;1.40;70.70;;;;;;5057828;28;20032;-59
2021/01/13 15:33:52;;;;;;;9.75;6.13;;;1.30;70.70;;;;;;5050653;28;20094;-60
2021/01/13 15:36:17;;;;;;;9.75;6.50;;;1.40;70.80;;;;;;5055113;28;20039;-58
2021/01/13 15:38:43;;;;;;;8.18;5.72;;;1.40;70.80;;;;;;5046525;28;20040;-59
2021/01/13 15:41:13;;;;;;;8.75;6.47;;;1.40;70.70;;;;;;5051786;28;20039;-61
2021/01/13 15:43:39;;;;;;;8.95;6.15;;;1.40;70.90;;;;;;5057349;28;20364;-58
2021/01/13 15:46:05;;;;;;;9.93;6.43;;;1.40;70.80;;;;;;5061692;28;20039;-58
2021/01/13 15:48:31;;;;;;;8.88;5.97;;;1.40;70.70;;;;;;5057179;28;20039;-58
2021/01/13 15:50:57;;;;;;;9.20;5.90;;;1.40;70.90;;;;;;5051712;28;20500;-59
2021/01/13 15:53:22;;;;;;;9.88;6.60;;;1.50;70.90;;;;;;5050444;28;20500;-59
2021/01/13 15:55:49;;;;;;;10.27;6.60;;;1.50;70.80;;;;;;5054552;28;20357;-59
2021/01/13 15:58:23;;;;;;;9.23;6.80;;;1.50;70.60;;;;;;5054855;28;20089;-59
2021/01/13 16:00:49;;;;;;;7.75;6.03;;;1.50;70.50;;;;;;5057070;28;20364;-59
2021/01/13 16:03:15;;;;;;;9.43;6.45;;;1.50;70.60;;;;;;5053332;28;20021;-59
2021/01/13 16:05:41;;;;;;;10.38;6.78;;;1.60;70.80;;;;;;5058589;28;20021;-59
2021/01/13 16:08:07;;;;;;;8.20;6.20;;;1.50;70.70;;;;;;5056798;28;20044;-58
2021/01/13 16:10:33;;;;;;;8.75;5.85;;;1.60;70.70;;;;;;5056439;28;20449;-59
2021/01/13 16:12:59;;;;;;;7.88;5.82;;;1.60;70.50;;;;;;5059874;28;20036;-59
2021/01/13 16:15:25;;;;;;;8.30;6.20;;;1.60;70.20;;;;;;5053600;28;20046;-59
2021/01/13 16:17:55;;;;;;;9.85;6.43;;;1.60;69.90;;;;;;5050755;28;20090;-58
2021/01/13 16:20:23;;;;;;;10.43;7.18;;;1.50;70.10;;;;;;5057184;28;20033;-59
2021/01/13 16:22:50;;;;;;;9.07;6.40;;;1.50;70.20;;;;;;5057071;28;20071;-59
2021/01/13 16:25:16;;;;;;;9.85;7.05;;;1.50;70.30;;;;;;5056727;28;20037;-59
2021/01/13 16:27:43;;;;;;;10.43;7.05;;;1.50;70.40;;;;;;5058357;28;20026;-59
2021/01/13 16:30:12;;;;;;;10.10;6.78;;;1.50;70.10;;;;;;5057610;28;20055;-59
2021/01/13 16:32:43;;;;;;;10.68;6.28;;;1.50;70.10;;;;;;5055565;28;20090;-59
2021/01/13 16:35:11;;;;;;;10.27;6.85;;;1.50;70.00;;;;;;5056573;28;20040;-59
2021/01/13 16:37:37;;;;;;;9.23;6.78;;;1.50;70.00;;;;;;5055709;28;20584;-59
2021/01/13 16:40:05;;;;;;;10.25;7.03;;;1.50;69.80;;;;;;5054437;28;20032;-59
2021/01/13 16:42:38;;;;;;;12.05;7.28;;;1.50;69.60;;;;;;5053401;28;20033;-60
2021/01/13 16:45:05;;;;;;;10.20;7.38;;;1.50;69.70;;;;;;5059718;28;20032;-59
2021/01/13 16:47:31;;;;;;;10.48;7.43;;;1.50;69.80;;;;;;5055493;28;20024;-59
2021/01/13 16:49:57;;;;;;;12.30;7.47;;;1.40;69.80;;;;;;5059326;28;20033;-59
2021/01/13 16:52:26;;;;;;;9.27;6.30;;;1.40;69.70;;;;;;5060245;28;20662;-59
2021/01/13 16:54:53;;;;;;;10.15;6.97;;;1.40;69.70;;;;;;5057027;28;20053;-59
2021/01/13 16:57:24;;;;;;;11.43;7.13;;;1.40;69.60;;;;;;5058769;28;20442;-59
2021/01/13 17:00:03;;;;;;;11.18;7.22;;;1.40;69.60;;;;;;5059583;28;20025;-59
2021/01/13 17:02:36;;;;;;;10.18;7.05;;;1.40;69.50;;;;;;5057351;28;20025;-59
2021/01/13 17:05:10;;;;;;;11.23;7.13;;;1.40;69.30;;;;;;5061755;28;20052;-61
2021/01/13 17:07:36;;;;;;;12.60;7.15;;;1.40;69.20;;;;;;5054478;28;20120;-59
2021/01/13 17:10:04;;;;;;;11.88;7.57;;;1.40;69.30;;;;;;5061871;28;20035;-59
2021/01/13 17:12:31;;;;;;;9.43;6.78;;;1.30;69.20;;;;;;5057661;28;20063;-59
2021/01/13 17:15:01;;;;;;;10.25;6.53;;;1.40;69.20;;;;;;5056942;28;20499;-59
2021/01/13 17:17:31;;;;;;;8.50;6.28;;;1.30;69.10;;;;;;5060613;28;20098;-58
2021/01/13 17:20:00;;;;;;;7.97;6.28;;;1.30;69.20;;;;;;5057881;28;20032;-60
2021/01/13 17:22:26;;;;;;;8.88;5.72;;;1.30;68.90;;;;;;5054617;28;20433;-60
2021/01/13 17:24:52;;;;;;;8.20;5.97;;;1.30;69.00;;;;;;5066905;28;20436;-59
2021/01/13 17:27:18;;;;;;;8.38;6.28;;;1.30;69.10;;;;;;5053855;28;20031;-59
2021/01/13 17:29:44;;;;;;;9.20;6.18;;;1.30;69.10;;;;;;5060880;28;20052;-59
2021/01/13 17:32:10;;;;;;;7.63;5.88;;;1.30;69.00;;;;;;5057649;28;20420;-59
2021/01/13 17:34:35;;;;;;;8.35;5.70;;;1.30;68.90;;;;;;5064487;28;20037;-59
2021/01/13 17:37:01;;;;;;;8.85;6.45;;;1.30;69.00;;;;;;5064087;28;20036;-60
2021/01/13 17:39:30;;;;;;;8.43;6.10;;;1.40;68.90;;;;;;5061765;28;20059;-60
2021/01/13 17:41:58;;;;;;;8.43;5.95;;;1.40;68.70;;;;;;5063476;28;20058;-60
2021/01/13 17:44:24;;;;;;;8.80;6.18;;;1.40;68.80;;;;;;5057185;28;20085;-60
2021/01/13 17:46:54;;;;;;;9.38;6.78;;;1.40;68.90;;;;;;5059088;28;20048;-58
2021/01/13 17:49:21;;;;;;;8.40;6.68;;;1.40;68.70;;;;;;5056684;28;20024;-59
2021/01/13 17:51:49;;;;;;;9.68;7.00;;;1.40;68.60;;;;;;5054989;28;20029;-60
2021/01/13 17:54:18;;;;;;;10.48;7.00;;;1.40;68.60;;;;;;5062936;28;20025;-59
2021/01/13 17:56:46;;;;;;;10.38;7.25;;;1.50;68.90;;;;;;5060527;28;20671;-60
2021/01/13 17:59:12;;;;;;;11.57;7.65;;;1.50;68.50;;;;;;5064182;28;20038;-59
2021/01/13 18:01:38;;;;;;;9.32;7.32;;;1.50;68.50;;;;;;5060629;28;20021;-59
2021/01/13 18:04:11;;;;;;;10.57;6.47;;;1.40;69.10;;;;;;5061503;28;20060;-59
2021/01/13 18:06:37;;;;;;;11.90;7.25;;;1.40;68.60;;;;;;5066580;28;20032;-59
2021/01/13 18:09:03;;;;;;;10.95;7.13;;;1.40;68.70;;;;;;5067582;28;20036;-58
2021/01/13 18:11:29;;;;;;;10.02;7.05;;;1.40;68.70;;;;;;5067163;28;20508;-59
2021/01/13 18:13:56;;;;;;;10.20;6.70;;;1.40;68.80;;;;;;5061139;28;20044;-58
2021/01/13 18:16:21;;;;;;;10.90;7.18;;;1.40;68.80;;;;;;5067268;28;20024;-59
2021/01/13 18:18:47;;;;;;;9.38;6.72;;;1.50;68.80;;;;;;5068201;28;20133;-59
2021/01/13 18:21:13;;;;;;;9.10;6.30;;;1.40;68.50;;;;;;5066351;28;20563;-58
2021/01/13 18:23:38;;;;;;;9.05;6.22;;;1.40;68.50;;;;;;5067799;28;20052;-56
2021/01/13 18:26:04;;;;;;;8.52;6.18;;;1.40;68.70;;;;;;5064932;28;20404;-59
2021/01/13 18:28:30;;;;;;;9.50;6.82;;;1.40;68.90;;;;;;5057331;28;20074;-60
2021/01/13 18:30:57;;;;;;;10.45;6.63;;;1.40;68.80;;;;;;5059931;28;20056;-59
2021/01/13 18:33:22;;;;;;;10.68;7.32;;;1.40;68.70;;;;;;5064779;28;20115;-59
2021/01/13 18:35:48;;;;;;;11.00;7.15;;;1.40;68.70;;;;;;5058274;28;21462;-59
2021/01/13 18:38:14;;;;;;;10.45;7.13;;;1.40;68.70;;;;;;5062287;28;20029;-60
2021/01/13 18:40:41;;;;;;;8.57;6.35;;;1.40;68.90;;;;;;5065636;28;20123;-59
2021/01/13 18:43:09;;;;;;;8.55;6.35;;;1.40;68.70;;;;;;5063507;28;20025;-60
2021/01/13 18:45:37;;;;;;;8.70;6.20;;;1.40;68.50;;;;;;5066906;28;20048;-60
2021/01/13 18:48:04;;;;;;;9.52;6.55;;;1.30;68.50;;;;;;5062670;28;20043;-61
2021/01/13 18:50:31;;;;;;;9.27;5.88;;;1.30;68.70;;;;;;5056621;28;20481;-58
2021/01/13 18:52:57;;;;;;;8.45;5.78;;;1.30;68.80;;;;;;5067213;28;20025;-59
2021/01/13 18:55:23;;;;;;;8.55;6.10;;;1.30;69.20;;;;;;5061616;28;20143;-59
2021/01/13 18:57:49;;;;;;;7.20;5.00;;;1.30;69.20;;;;;;5059873;28;20589;-59
2021/01/13 19:00:16;;;;;;;9.18;6.88;;;1.40;69.30;;;;;;5064598;28;20032;-57
2021/01/13 19:02:42;;;;;;;11.25;7.90;;;1.40;69.20;;;;;;5060693;28;20013;-60
2021/01/13 19:05:09;;;;;;;10.55;7.63;;;1.40;69.30;;;;;;5068137;28;20547;-59
2021/01/13 19:07:36;;;;;;;9.90;6.65;;;1.40;69.10;;;;;;5068628;28;20024;-58
2021/01/13 19:10:03;;;;;;;9.63;6.18;;;1.40;69.00;;;;;;5071995;28;20376;-59
2021/01/13 19:12:29;;;;;;;10.77;7.18;;;1.40;68.80;;;;;;5069538;28;20100;-59
2021/01/13 19:14:55;;;;;;;9.68;6.90;;;1.40;68.80;;;;;;5069435;28;20100;-59
2021/01/13 19:17:22;;;;;;;9.60;7.18;;;1.40;68.90;;;;;;5071514;28;20091;-59
2021/01/13 19:19:48;;;;;;;10.05;6.70;;;1.40;68.90;;;;;;5071320;28;20029;-58
2021/01/13 19:22:14;;;;;;;11.15;7.43;;;1.40;68.70;;;;;;5069078;28;20116;-58
2021/01/13 19:24:39;;;;;;;8.80;6.40;;;1.40;68.80;;;;;;5071349;28;20044;-59
2021/01/13 19:27:06;;;;;;;10.48;6.68;;;1.40;68.70;;;;;;5070267;28;20090;-59
2021/01/13 19:29:32;;;;;;;9.45;6.72;;;1.40;68.70;;;;;;5068625;28;20024;-59
2021/01/13 19:32:04;;;;;;;10.23;7.00;;;1.40;68.80;;;;;;5074146;28;20028;-58
2021/01/13 19:34:29;;;;;;;8.00;6.47;;;1.40;68.90;;;;;;5073250;28;20446;-60
2021/01/13 19:36:55;;;;;;;8.82;6.10;;;1.40;68.80;;;;;;5065850;28;20049;-59
2021/01/13 19:39:22;;;;;;;10.70;6.40;;;1.50;68.50;;;;;;5068873;28;20384;-59
2021/01/13 19:41:49;;;;;;;9.00;6.32;;;1.40;68.40;;;;;;5072348;28;20028;-59